Time;durP1;ratioP1;P1;durP2;ratioP2;P2;SDS_P1;SDS_P2;PMS_P1;PMS_P2;Temp;Humidity;BMP_temperature;BMP_pressure;BME280_temperature;BME280_humidity;BME280_pressure;Samples;Min_cycle;Max_cycle;Signal;HPM_P1;HPM_P2
2022/11/01 00:01:52;;;;;;;7.55;4.35;;;;;;;5.06;54.07;100031.88;1798073;79;20948;-41
2022/11/01 00:04:19;;;;;;;8.08;4.00;;;;;;;5.00;54.28;100026.92;1798062;79;21577;-41
2022/11/01 00:06:48;;;;;;;7.50;4.20;;;;;;;4.98;54.53;100025.11;1798032;79;21023;-41
2022/11/01 00:09:15;;;;;;;6.45;3.83;;;;;;;4.98;54.65;100027.25;1798082;79;21556;-40
2022/11/01 00:11:43;;;;;;;5.92;3.72;;;;;;;4.98;54.45;100027.25;1798054;79;20884;-41
2022/11/01 00:14:14;;;;;;;7.00;4.08;;;;;;;4.96;54.43;100021.91;1798332;79;20908;-41
2022/11/01 00:16:41;;;;;;;6.08;3.70;;;;;;;4.94;54.58;100023.55;1798369;79;21462;-41
2022/11/01 00:19:10;;;;;;;6.20;3.80;;;;;;;4.93;54.66;100025.22;1798467;79;20927;-41
2022/11/01 00:21:36;;;;;;;6.42;3.87;;;;;;;4.92;54.73;100024.97;1798559;79;21941;-41
2022/11/01 00:24:05;;;;;;;8.85;4.72;;;;;;;4.90;54.88;100019.89;1798533;79;20999;-41
2022/11/01 00:26:32;;;;;;;7.72;4.10;;;;;;;4.89;54.71;100020.22;1798332;79;21002;-41
2022/11/01 00:29:01;;;;;;;7.92;3.87;;;;;;;4.87;54.89;100017.03;1798411;79;20955;-41
2022/11/01 00:31:28;;;;;;;7.17;3.80;;;;;;;4.87;55.04;100019.72;1793604;79;21063;-41
2022/11/01 00:33:56;;;;;;;4.42;2.55;;;;;;;4.89;55.13;100015.62;1789886;80;21147;-41
2022/11/01 00:36:23;;;;;;;7.92;4.00;;;;;;;4.88;54.86;100014.59;1789326;80;21470;-41
2022/11/01 00:38:51;;;;;;;7.47;3.77;;;;;;;4.85;55.10;100020.56;1789386;80;21797;-41
2022/11/01 00:41:19;;;;;;;9.30;3.62;;;;;;;4.83;54.83;100027.60;1789302;80;21002;-41
2022/11/01 00:43:47;;;;;;;6.20;3.75;;;;;;;4.81;55.15;100023.87;1789450;80;20967;-41
2022/11/01 00:46:13;;;;;;;6.62;3.70;;;;;;;4.80;55.57;100028.98;1789575;80;21533;-41
2022/11/01 00:48:40;;;;;;;7.80;3.80;;;;;;;4.79;55.75;100037.37;1789194;80;20932;-41
2022/11/01 00:51:07;;;;;;;6.25;3.85;;;;;;;4.79;55.77;100032.00;1789317;80;21529;-41
2022/11/01 00:53:34;;;;;;;8.50;4.00;;;;;;;4.75;55.75;100028.31;1789293;80;20900;-41
2022/11/01 00:56:04;;;;;;;7.28;3.67;;;;;;;4.73;55.85;100028.64;1789450;80;21521;-41
2022/11/01 00:58:31;;;;;;;6.37;3.95;;;;;;;4.72;55.86;100021.67;1789101;80;21086;-41
2022/11/01 01:00:58;;;;;;;6.53;3.77;;;;;;;4.72;55.90;100024.36;1789175;80;21560;-40
2022/11/01 01:03:25;;;;;;;7.28;4.10;;;;;;;4.71;55.95;100026.00;1789220;80;20944;-41
2022/11/01 01:05:52;;;;;;;7.97;3.72;;;;;;;4.71;56.11;100029.48;1789288;80;20992;-41
2022/11/01 01:08:20;;;;;;;6.97;3.77;;;;;;;4.68;56.06;100030.09;1789305;80;21070;-41
2022/11/01 01:10:47;;;;;;;6.80;4.05;;;;;;;4.64;56.08;100031.00;1789249;80;21141;-41
2022/11/01 01:13:16;;;;;;;8.98;3.80;;;;;;;4.63;56.32;100035.58;1789291;80;20983;-41
2022/11/01 01:15:42;;;;;;;8.25;3.83;;;;;;;4.63;56.37;100029.41;1789774;80;21008;-40
2022/11/01 01:18:11;;;;;;;7.83;3.85;;;;;;;4.63;56.50;100023.50;1789481;80;21471;-41
2022/11/01 01:20:38;;;;;;;7.08;3.58;;;;;;;4.63;56.53;100028.87;1789342;80;21023;-41
2022/11/01 01:23:06;;;;;;;8.58;3.70;;;;;;;4.64;56.60;100025.64;1789428;80;20991;-41
2022/11/01 01:25:33;;;;;;;9.25;4.08;;;;;;;4.66;56.68;100030.14;1789424;80;21007;-41
2022/11/01 01:28:00;;;;;;;9.53;4.28;;;;;;;4.66;56.71;100027.45;1789450;80;21010;-41
2022/11/01 01:30:27;;;;;;;8.33;4.83;;;;;;;4.59;56.70;100025.20;1789586;80;21474;-41
2022/11/01 01:32:55;;;;;;;8.05;4.45;;;;;;;4.50;56.96;100013.60;1789095;79;21011;-41
2022/11/01 01:35:22;;;;;;;8.30;4.47;;;;;;;4.49;57.06;100022.75;1789134;80;21232;-41
2022/11/01 01:37:50;;;;;;;8.18;3.90;;;;;;;4.50;57.08;100020.31;1789180;80;20924;-41
2022/11/01 01:40:17;;;;;;;8.30;4.33;;;;;;;4.51;57.03;100020.53;1789267;80;21008;-41
2022/11/01 01:42:46;;;;;;;6.53;4.17;;;;;;;4.52;57.09;100022.12;1789139;80;21640;-41
2022/11/01 01:45:31;;;;;;;7.33;4.17;;;;;;;4.53;57.27;100025.06;1789326;80;20985;-41
2022/11/01 01:48:24;;;;;;;7.60;4.25;;;;;;;4.52;57.33;100023.47;1789112;80;23105;-41
2022/11/01 01:50:57;;;;;;;7.00;3.90;;;;;;;4.52;57.36;100026.70;1789238;80;20923;-41
2022/11/01 01:53:46;;;;;;;8.35;4.17;;;;;;;4.50;57.45;100029.71;1788082;78;21122;-41
2022/11/01 01:56:17;;;;;;;7.67;4.03;;;;;;;4.50;57.43;100029.71;1785528;80;21099;-41
2022/11/01 01:58:51;;;;;;;6.72;4.00;;;;;;;4.49;57.35;100025.43;1785523;80;20936;-41
2022/11/01 02:01:18;;;;;;;7.97;4.20;;;;;;;4.48;57.06;100024.38;1785384;80;21812;-41
2022/11/01 02:03:45;;;;;;;9.30;4.42;;;;;;;4.47;57.03;100022.24;1785398;80;20933;-41
2022/11/01 02:06:15;;;;;;;9.10;4.28;;;;;;;4.45;56.80;100022.31;1785486;80;21032;-40
2022/11/01 02:08:50;;;;;;;9.43;3.70;;;;;;;4.45;56.90;100020.97;1785644;80;20967;-41
2022/11/01 02:11:18;;;;;;;9.13;3.83;;;;;;;4.44;57.22;100017.48;1756766;80;21560;-41
2022/11/01 02:13:45;;;;;;;6.45;3.85;;;;;;;4.44;57.59;100013.46;1785801;80;21119;-41
2022/11/01 02:16:37;;;;;;;7.95;4.37;;;;;;;4.46;57.69;100012.59;1785608;80;21616;-41
2022/11/01 02:19:28;;;;;;;6.58;3.90;;;;;;;4.50;57.79;100022.20;1779524;80;20963;-41
2022/11/01 02:22:15;;;;;;;8.98;4.22;;;;;;;4.50;57.82;100032.94;1785860;80;21047;-41
2022/11/01 02:25:19;;;;;;;6.72;3.98;;;;;;;4.49;57.89;100032.14;1785721;80;21067;-41
2022/11/01 02:28:39;;;;;;;7.35;4.12;;;;;;;4.50;57.85;100034.28;1785730;80;21236;-41
2022/11/01 02:31:29;;;;;;;11.05;4.50;;;;;;;4.48;57.76;100038.60;1785621;80;20944;-41
2022/11/01 02:33:59;;;;;;;9.68;4.50;;;;;;;4.44;57.84;100041.65;1785635;80;20940;-40
2022/11/01 02:36:34;;;;;;;7.17;3.80;;;;;;;4.42;57.93;100042.48;1785786;80;20932;-41
2022/11/01 02:39:06;;;;;;;9.88;3.98;;;;;;;4.44;58.08;100038.97;1785746;80;21051;-41
2022/11/01 02:41:52;;;;;;;7.53;4.12;;;;;;;4.45;58.09;100042.45;1780676;80;21135;-41
2022/11/01 02:44:26;;;;;;;9.43;4.40;;;;;;;4.48;58.07;100043.97;1785406;80;21595;-41
2022/11/01 02:47:00;;;;;;;8.25;4.42;;;;;;;4.45;58.14;100042.45;1784618;80;20976;-41
2022/11/01 02:49:44;;;;;;;6.47;3.58;;;;;;;4.43;57.86;100037.37;1785571;80;21008;-41
2022/11/01 02:52:15;;;;;;;7.47;4.00;;;;;;;4.40;57.86;100035.84;1785855;80;20998;-41
2022/11/01 02:54:44;;;;;;;6.58;3.95;;;;;;;4.36;57.76;100035.09;1785420;80;21123;-41
2022/11/01 02:57:28;;;;;;;10.60;4.30;;;;;;;4.34;57.70;100041.87;1785899;80;20996;-41
2022/11/01 03:00:02;;;;;;;8.30;4.20;;;;;;;4.31;57.79;100041.91;1785449;80;21503;-41
2022/11/01 03:02:39;;;;;;;6.60;3.62;;;;;;;4.27;58.07;100050.31;1785413;80;21094;-41
2022/11/01 03:05:27;;;;;;;5.47;3.40;;;;;;;4.25;58.20;100051.73;1785674;80;21079;-41
2022/11/01 03:07:58;;;;;;;6.78;3.52;;;;;;;4.21;58.77;100051.52;1785559;80;21077;-41
2022/11/01 03:10:32;;;;;;;7.37;3.87;;;;;;;4.18;58.96;100049.44;1785503;80;20960;-41
2022/11/01 03:13:09;;;;;;;6.87;3.77;;;;;;;4.15;59.08;100055.95;1785472;80;21007;-41
2022/11/01 03:15:38;;;;;;;7.53;3.75;;;;;;;4.10;59.22;100054.17;1785724;80;21538;-40
2022/11/01 03:18:19;;;;;;;8.08;3.80;;;;;;;4.06;59.19;100051.84;1786100;80;21360;-41
2022/11/01 03:20:55;;;;;;;8.28;4.00;;;;;;;4.04;59.20;100054.02;1785721;80;23128;-41
2022/11/01 03:23:27;;;;;;;7.95;3.98;;;;;;;3.95;59.51;100053.14;1785306;80;20972;-40
2022/11/01 03:25:55;;;;;;;7.75;3.58;;;;;;;3.76;59.75;100050.55;1785798;80;20991;-41
2022/11/01 03:28:40;;;;;;;5.55;3.30;;;;;;;3.69;60.10;100052.81;1785693;80;21547;-41
2022/11/01 03:31:18;;;;;;;8.25;3.80;;;;;;;3.76;60.18;100059.14;1755326;80;21075;-41
2022/11/01 03:33:51;;;;;;;8.00;3.90;;;;;;;3.78;60.17;100054.25;1785911;80;21572;-41
2022/11/01 03:36:20;;;;;;;7.70;3.87;;;;;;;3.81;60.30;100061.19;1785461;80;21545;-41
2022/11/01 03:38:55;;;;;;;8.95;3.75;;;;;;;3.85;60.12;100048.77;1785524;80;20984;-41
2022/11/01 03:41:22;;;;;;;8.23;3.58;;;;;;;3.90;59.92;100060.73;1782698;80;20948;-41
2022/11/01 03:43:49;;;;;;;7.85;3.58;;;;;;;3.91;59.78;100055.62;1785473;80;21015;-41
2022/11/01 03:46:16;;;;;;;8.48;4.05;;;;;;;3.91;59.54;100050.80;1785629;80;21123;-41
2022/11/01 03:48:42;;;;;;;10.18;3.75;;;;;;;3.81;59.48;100049.66;1785551;80;20968;-41
2022/11/01 03:51:09;;;;;;;10.15;3.95;;;;;;;3.77;59.66;100048.67;1785764;80;20991;-40
2022/11/01 03:53:36;;;;;;;6.25;3.70;;;;;;;3.77;59.66;100045.98;1785561;80;21617;-40
2022/11/01 03:56:04;;;;;;;9.73;3.80;;;;;;;3.75;59.59;100053.52;1785728;80;21091;-41
2022/11/01 03:58:40;;;;;;;7.95;3.90;;;;;;;3.64;59.64;100052.11;1786192;80;21085;-40
2022/11/01 04:01:10;;;;;;;6.95;3.40;;;;;;;3.54;59.94;100055.77;1785834;80;21522;-41
2022/11/01 04:03:38;;;;;;;8.68;3.72;;;;;;;3.50;60.18;100064.16;1785651;80;21003;-40
2022/11/01 04:06:06;;;;;;;6.53;3.30;;;;;;;3.50;60.35;100057.45;1785669;80;21487;-41
2022/11/01 04:08:33;;;;;;;8.10;3.87;;;;;;;3.54;60.29;100060.34;1786082;80;21078;-40
2022/11/01 04:11:02;;;;;;;6.90;3.62;;;;;;;3.54;60.22;100059.80;1785689;80;20920;-41
2022/11/01 04:13:30;;;;;;;7.40;3.50;;;;;;;3.54;60.29;100061.13;1785637;80;21482;-41
2022/11/01 04:21:28;;;;;;;7.15;3.50;;;;;;;3.58;60.31;100058.14;1785604;80;21008;-40
2022/11/01 04:23:55;;;;;;;6.75;3.27;;;;;;;3.57;60.21;100061.10;1785689;80;21126;-40
2022/11/01 04:26:23;;;;;;;6.20;2.95;;;;;;;3.58;60.22;100062.16;1785738;80;21047;-40
2022/11/01 04:28:57;;;;;;;6.50;3.10;;;;;;;3.61;60.34;100066.12;1785809;80;21395;-41
2022/11/01 04:31:28;;;;;;;6.87;3.27;;;;;;;3.63;60.41;100059.36;1785821;80;21100;-41
2022/11/01 04:33:57;;;;;;;9.33;3.65;;;;;;;3.66;60.52;100059.33;1794665;80;21027;-40
2022/11/01 04:36:24;;;;;;;7.47;3.42;;;;;;;3.66;60.66;100065.48;1795114;79;21057;-41
2022/11/01 04:38:52;;;;;;;6.12;3.47;;;;;;;3.70;60.59;100071.05;1794638;80;21019;-40
2022/11/01 04:41:18;;;;;;;5.75;3.30;;;;;;;3.73;60.43;100063.20;1795123;80;21026;-41
2022/11/01 04:43:46;;;;;;;7.50;3.95;;;;;;;3.75;60.20;100065.05;1794793;80;20940;-41
2022/11/01 04:46:13;;;;;;;6.67;3.50;;;;;;;3.77;60.05;100066.89;1794836;79;21012;-41
2022/11/01 04:48:40;;;;;;;6.78;3.35;;;;;;;3.79;59.93;100074.08;1794638;79;21144;-41
2022/11/01 04:51:08;;;;;;;7.37;3.92;;;;;;;3.81;59.86;100071.91;1794641;79;20951;-41
2022/11/01 04:53:35;;;;;;;8.63;3.42;;;;;;;3.82;59.99;100076.19;1794654;80;21041;-41
2022/11/01 04:56:03;;;;;;;6.90;3.60;;;;;;;3.84;59.81;100076.67;1794615;80;20963;-41
2022/11/01 04:58:33;;;;;;;7.55;3.75;;;;;;;3.86;59.80;100072.36;1794748;80;21043;-41
2022/11/01 05:01:07;;;;;;;8.35;3.77;;;;;;;3.88;59.70;100072.30;1794720;80;21134;-41
2022/11/01 05:03:35;;;;;;;8.60;3.50;;;;;;;3.89;59.64;100075.78;1794334;80;20890;-42
2022/11/01 05:06:02;;;;;;;8.13;3.90;;;;;;;3.89;59.66;100075.78;1794611;80;21090;-42
2022/11/01 05:08:31;;;;;;;10.98;4.80;;;;;;;3.90;59.69;100070.67;1794479;80;21007;-42
2022/11/01 05:10:59;;;;;;;7.75;4.00;;;;;;;3.90;59.59;100070.67;1794531;80;21095;-42
2022/11/01 05:13:27;;;;;;;7.75;4.12;;;;;;;3.89;59.59;100071.75;1794512;80;21537;-41
2022/11/01 05:15:54;;;;;;;9.03;3.92;;;;;;;3.91;59.69;100077.09;1794374;80;21105;-42
2022/11/01 05:18:21;;;;;;;8.55;4.22;;;;;;;3.93;59.69;100078.11;1794379;80;21018;-41
2022/11/01 05:20:48;;;;;;;9.18;3.90;;;;;;;3.94;59.60;100073.80;1794408;80;21012;-42
2022/11/01 05:23:14;;;;;;;9.50;4.28;;;;;;;3.96;59.70;100071.37;1794497;80;21039;-41
2022/11/01 05:25:41;;;;;;;9.20;3.80;;;;;;;3.96;59.72;100072.70;1794573;79;21130;-42
2022/11/01 05:28:13;;;;;;;7.53;4.03;;;;;;;3.97;59.68;100075.65;1794451;80;20983;-42
2022/11/01 05:30:40;;;;;;;9.48;4.40;;;;;;;3.97;59.76;100072.97;1794712;79;20936;-41
2022/11/01 05:33:09;;;;;;;8.83;4.17;;;;;;;3.97;59.92;100074.30;1794414;80;21015;-41
2022/11/01 05:35:37;;;;;;;;;;;;;;;3.99;60.12;100072.10;1797400;79;20992;-42
2022/11/01 05:38:05;;;;;;;7.60;4.22;;;;;;;3.99;60.10;100076.12;1794514;80;21309;-42
2022/11/01 05:40:33;;;;;;;9.13;3.80;;;;;;;3.90;60.31;100076.83;1794597;79;21489;-42
2022/11/01 05:43:00;;;;;;;6.58;3.83;;;;;;;3.96;60.31;100079.42;1794548;80;21473;-42
2022/11/01 05:45:28;;;;;;;8.95;4.12;;;;;;;4.01;60.25;100073.41;1794567;79;20963;-42
2022/11/01 05:47:57;;;;;;;7.08;3.58;;;;;;;4.05;60.17;100078.97;1794486;80;21067;-42
2022/11/01 05:50:24;;;;;;;6.95;3.77;;;;;;;4.09;60.19;100083.98;1794384;79;21143;-42
2022/11/01 05:52:51;;;;;;;9.13;4.33;;;;;;;4.13;60.26;100079.60;1794258;80;21592;-41
2022/11/01 05:55:19;;;;;;;9.78;4.30;;;;;;;4.18;60.38;100079.50;1789632;80;21859;-42
2022/11/01 05:57:46;;;;;;;10.88;4.65;;;;;;;4.25;60.45;100077.22;1794374;79;21062;-41
2022/11/01 06:00:14;;;;;;;8.93;3.65;;;;;;;4.32;60.47;100078.39;1794713;79;20995;-41
2022/11/01 06:02:41;;;;;;;6.72;4.22;;;;;;;4.39;60.39;100080.69;1794575;80;23257;-42
2022/11/01 06:05:08;;;;;;;9.03;3.90;;;;;;;4.45;60.36;100081.37;1794653;80;21564;-41
2022/11/01 06:07:37;;;;;;;8.35;4.42;;;;;;;4.50;60.36;100082.06;1794834;79;21513;-42
2022/11/01 06:10:05;;;;;;;9.35;3.95;;;;;;;4.56;60.47;100083.52;1794709;80;21537;-42
2022/11/01 06:12:33;;;;;;;9.43;4.05;;;;;;;4.61;60.39;100080.73;1795133;80;26976;-41
2022/11/01 06:15:03;;;;;;;6.53;4.12;;;;;;;4.68;60.48;100075.75;1794499;80;21125;-42
2022/11/01 06:17:30;;;;;;;10.90;4.05;;;;;;;4.74;60.50;100086.61;1794972;80;21067;-42
2022/11/01 06:19:59;;;;;;;9.48;4.00;;;;;;;4.80;60.58;100081.37;1794639;79;20939;-41
2022/11/01 06:22:26;;;;;;;6.25;3.90;;;;;;;4.92;60.35;100081.39;1794644;80;21079;-42
2022/11/01 06:24:54;;;;;;;10.05;4.47;;;;;;;5.07;60.14;100086.42;1794582;80;21030;-42
2022/11/01 06:27:21;;;;;;;7.62;3.85;;;;;;;5.23;59.96;100090.31;1794393;80;21243;-42
2022/11/01 06:29:48;;;;;;;8.53;4.40;;;;;;;5.32;59.75;100089.84;1794434;80;21031;-42
2022/11/01 06:32:15;;;;;;;11.73;4.40;;;;;;;5.42;59.70;100086.88;1793890;80;21054;-42
2022/11/01 06:34:43;;;;;;;7.90;4.42;;;;;;;5.52;59.62;100094.69;1785545;80;20955;-42
2022/11/01 06:37:10;;;;;;;11.40;4.30;;;;;;;5.61;59.66;100093.42;1785603;80;20940;-41
2022/11/01 06:39:38;;;;;;;8.93;4.33;;;;;;;5.73;59.57;100086.10;1785586;80;21048;-42
2022/11/01 06:42:05;;;;;;;7.97;4.08;;;;;;;5.83;59.26;100091.22;1785473;80;21059;-42
2022/11/01 06:44:32;;;;;;;15.63;4.80;;;;;;;5.93;59.02;100093.12;1785626;80;21048;-42
2022/11/01 06:46:59;;;;;;;10.78;4.50;;;;;;;6.00;58.66;100094.80;1785534;80;20956;-42
2022/11/01 06:49:25;;;;;;;9.28;4.45;;;;;;;5.97;58.41;100094.63;1785499;80;20992;-42
2022/11/01 06:51:52;;;;;;;7.22;4.42;;;;;;;5.90;58.79;100097.79;1785317;80;23245;-42
2022/11/01 06:54:20;;;;;;;8.28;4.10;;;;;;;5.88;59.15;100092.45;1785481;80;21500;-42
2022/11/01 06:56:47;;;;;;;10.45;4.37;;;;;;;5.88;59.30;100093.26;1785563;80;20963;-42
2022/11/01 06:59:15;;;;;;;9.55;4.22;;;;;;;5.89;59.55;100094.05;1785469;80;21637;-42
2022/11/01 07:01:43;;;;;;;8.53;4.47;;;;;;;5.80;59.87;100090.50;1785597;80;20975;-42
2022/11/01 07:04:09;;;;;;;13.00;4.55;;;;;;;5.70;60.23;100098.29;1785410;80;21262;-42
2022/11/01 07:06:36;;;;;;;11.45;4.45;;;;;;;5.64;60.71;100093.59;1785490;80;20975;-42
2022/11/01 07:09:04;;;;;;;10.30;4.30;;;;;;;5.68;61.20;100091.86;1785641;80;21023;-42
2022/11/01 07:11:32;;;;;;;10.00;4.50;;;;;;;5.77;61.43;100095.94;1784467;80;21109;-42
2022/11/01 07:13:58;;;;;;;7.85;3.87;;;;;;;5.89;61.26;100094.05;1754368;81;21346;-42
2022/11/01 07:16:26;;;;;;;8.63;3.85;;;;;;;5.99;61.22;100082.47;1754744;81;21558;-42
2022/11/01 07:18:53;;;;;;;8.18;4.05;;;;;;;6.09;60.89;100086.77;1754467;81;21029;-42
2022/11/01 07:21:20;;;;;;;8.20;4.47;;;;;;;6.06;60.77;100088.17;1754605;81;21107;-42
2022/11/01 07:23:46;;;;;;;9.90;4.35;;;;;;;6.02;61.05;100089.91;1754658;81;20968;-42
2022/11/01 07:26:13;;;;;;;12.13;4.70;;;;;;;6.06;61.27;100081.45;1754628;81;21043;-42
2022/11/01 07:28:40;;;;;;;11.57;4.42;;;;;;;6.13;61.51;100083.70;1754555;81;21135;-42
2022/11/01 07:31:07;;;;;;;7.47;3.92;;;;;;;6.25;61.42;100082.53;1754512;81;20988;-42
2022/11/01 07:33:35;;;;;;;10.82;4.67;;;;;;;6.35;61.23;100084.14;1754458;81;20975;-42
2022/11/01 07:36:03;;;;;;;8.88;4.30;;;;;;;6.35;61.16;100084.94;1754375;81;21011;-42
2022/11/01 07:38:31;;;;;;;9.55;3.98;;;;;;;6.38;61.33;100085.67;1754632;81;21095;-41
2022/11/01 07:40:57;;;;;;;8.73;3.92;;;;;;;6.45;61.50;100087.89;1757829;81;21154;-42
2022/11/01 07:43:24;;;;;;;8.78;4.08;;;;;;;6.52;61.50;100084.19;1758008;81;20923;-42
2022/11/01 07:48:18;;;;;;;9.20;4.00;;;;;;;6.71;61.25;100077.95;1778037;78;22087;-41
2022/11/01 07:50:45;;;;;;;8.80;3.70;;;;;;;6.67;61.24;100082.39;1755951;81;21505;-41
2022/11/01 07:53:17;;;;;;;8.30;4.15;;;;;;;6.81;61.27;100071.45;1755718;81;23119;-41
2022/11/01 07:55:45;;;;;;;7.35;3.83;;;;;;;6.97;61.11;100065.26;1755770;81;20932;-41
2022/11/01 07:58:13;;;;;;;7.58;3.90;;;;;;;7.12;60.17;100061.28;1755924;81;20932;-41
2022/11/01 08:00:43;;;;;;;7.08;2.77;;;;;;;7.21;59.71;100064.76;1755808;81;21225;-41
2022/11/01 08:03:12;;;;;;;7.12;3.47;;;;;;;7.32;59.66;100059.27;1755894;81;20971;-41
2022/11/01 08:05:39;;;;;;;8.53;3.90;;;;;;;7.50;58.99;100057.91;1763256;80;21932;-41
2022/11/01 08:08:06;;;;;;;9.13;3.58;;;;;;;7.67;58.61;100060.53;1773151;80;21507;-41
2022/11/01 08:10:36;;;;;;;7.65;3.08;;;;;;;7.89;58.31;100058.93;1773123;81;20977;-41
2022/11/01 08:13:18;;;;;;;6.12;3.17;;;;;;;8.08;57.34;100056.65;1773024;81;20985;-41
2022/11/01 08:15:48;;;;;;;7.08;3.12;;;;;;;8.25;57.10;100047.09;1773305;81;20969;-41
2022/11/01 08:18:15;;;;;;;6.90;3.50;;;;;;;8.42;56.10;100042.73;1773257;81;21121;-41
2022/11/01 08:20:42;;;;;;;8.73;3.50;;;;;;;8.54;56.22;100046.85;1773303;81;20934;-41
2022/11/01 08:23:10;;;;;;;5.75;3.02;;;;;;;8.67;55.51;100049.29;1773186;80;20972;-41
2022/11/01 08:25:37;;;;;;;8.23;3.12;;;;;;;8.78;54.62;100048.34;1773220;81;20981;-41
2022/11/01 08:28:07;;;;;;;4.70;2.65;;;;;;;8.81;54.63;100040.91;1773469;80;21491;-41
2022/11/01 08:30:36;;;;;;;5.25;2.80;;;;;;;8.88;54.24;100053.34;1773529;81;21295;-41
2022/11/01 08:33:03;;;;;;;7.05;3.20;;;;;;;8.92;54.03;100051.56;1741507;81;21041;-41
2022/11/01 08:35:32;;;;;;;5.78;2.80;;;;;;;8.99;54.27;100057.23;1773118;81;20941;-41
2022/11/01 08:37:59;;;;;;;8.03;3.05;;;;;;;9.11;53.99;100047.80;1773263;81;20965;-41
2022/11/01 08:40:29;;;;;;;5.05;3.25;;;;;;;9.26;53.53;100041.54;1773170;81;20918;-41
2022/11/01 08:42:57;;;;;;;6.62;3.27;;;;;;;9.46;53.45;100050.17;1772912;80;21957;-41
2022/11/01 08:45:24;;;;;;;5.55;3.10;;;;;;;9.67;51.93;100043.34;1772956;80;21477;-41
2022/11/01 08:47:57;;;;;;;6.60;3.40;;;;;;;9.83;51.84;100044.23;1780637;80;20882;-41
2022/11/01 08:50:24;;;;;;;5.30;2.90;;;;;;;9.99;50.94;100044.60;1784416;80;21044;-41
2022/11/01 08:52:51;;;;;;;5.53;3.10;;;;;;;10.14;51.07;100039.63;1784222;80;21041;-41
2022/11/01 08:55:17;;;;;;;8.63;3.12;;;;;;;10.31;50.13;100042.14;1784273;80;23270;-41
2022/11/01 08:57:44;;;;;;;7.85;2.70;;;;;;;10.48;50.17;100040.52;1784087;80;20960;-41
2022/11/01 09:00:15;;;;;;;5.00;2.52;;;;;;;10.68;50.19;100026.02;1783654;80;21547;-41
2022/11/01 09:02:43;;;;;;;7.37;2.50;;;;;;;10.92;49.03;100024.36;1783671;80;20965;-41
2022/11/01 09:05:10;;;;;;;6.55;2.60;;;;;;;11.09;47.04;100024.83;1783806;80;21011;-41
2022/11/01 09:07:37;;;;;;;6.15;2.98;;;;;;;11.20;47.23;100025.92;1783832;80;21293;-41
2022/11/01 09:10:06;;;;;;;6.12;2.52;;;;;;;11.30;46.55;100019.20;1783709;80;21056;-41
2022/11/01 09:12:33;;;;;;;7.85;3.10;;;;;;;11.37;45.79;100023.47;1783785;80;20993;-41
2022/11/01 09:15:00;;;;;;;6.58;2.95;;;;;;;11.39;45.91;100014.39;1783840;80;20941;-41
2022/11/01 09:17:27;;;;;;;9.55;3.00;;;;;;;11.52;46.35;100018.59;1783728;80;21015;-41
2022/11/01 09:19:55;;;;;;;6.20;2.40;;;;;;;11.72;46.16;100014.88;1783830;80;21220;-41
2022/11/01 09:22:23;;;;;;;5.33;2.65;;;;;;;11.91;44.66;100010.08;1783823;80;20965;-41
2022/11/01 09:24:50;;;;;;;5.50;2.40;;;;;;;12.01;44.29;100014.19;1783695;80;20913;-41
2022/11/01 09:27:17;;;;;;;5.20;2.40;;;;;;;12.09;44.40;100006.44;1783658;80;21397;-41
2022/11/01 09:29:45;;;;;;;5.22;2.42;;;;;;;12.22;44.21;99997.02;1783713;80;21048;-41
2022/11/01 09:32:12;;;;;;;4.60;2.33;;;;;;;12.35;43.68;99997.68;1783790;80;21232;-41
2022/11/01 09:34:40;;;;;;;4.67;2.35;;;;;;;12.40;42.47;99994.69;1783797;80;21472;-41
2022/11/01 09:37:06;;;;;;;4.75;2.22;;;;;;;12.43;43.20;99992.06;1783868;80;20981;-41
2022/11/01 09:39:35;;;;;;;4.28;2.45;;;;;;;12.54;42.21;99989.55;1783913;80;20984;-41
2022/11/01 09:42:05;;;;;;;6.15;2.17;;;;;;;12.61;42.40;99991.06;1783924;80;21000;-41
2022/11/01 09:44:39;;;;;;;4.40;2.00;;;;;;;12.67;41.49;99992.36;1784295;80;21102;-41
2022/11/01 09:47:12;;;;;;;5.10;2.42;;;;;;;12.70;41.59;99986.77;1783644;80;21009;-41
2022/11/01 09:49:40;;;;;;;6.22;2.35;;;;;;;12.75;42.32;99975.60;1718782;83;21700;-41
2022/11/01 09:52:12;;;;;;;4.05;2.50;;;;;;;12.89;42.05;99988.91;1762627;81;21491;-41
2022/11/01 09:54:40;;;;;;;5.80;2.42;;;;;;;13.01;41.14;99981.17;1767594;81;21034;-41
2022/11/01 09:57:33;;;;;;;5.42;2.15;;;;;;;13.06;41.01;99980.89;1767482;81;21237;-41
2022/11/01 10:00:09;;;;;;;3.65;1.70;;;;;;;13.14;40.95;99975.80;1767479;81;21072;-41
2022/11/01 10:03:03;;;;;;;5.28;2.20;;;;;;;13.29;39.89;99974.91;1767315;81;21009;-41
2022/11/01 10:05:42;;;;;;;6.08;2.20;;;;;;;13.32;39.98;99975.54;1767480;81;21030;-41
2022/11/01 10:08:17;;;;;;;4.33;2.37;;;;;;;13.33;41.00;99977.13;1783876;80;21012;-41
2022/11/01 10:11:16;;;;;;;7.83;2.50;;;;;;;13.52;40.60;99967.31;1751909;80;21134;-41
2022/11/01 10:13:55;;;;;;;6.35;2.20;;;;;;;13.73;39.97;99964.37;1783734;80;21008;-42
2022/11/01 10:16:40;;;;;;;4.57;2.17;;;;;;;14.00;39.23;99955.61;1768099;80;21028;-41
2022/11/01 10:19:18;;;;;;;3.17;1.85;;;;;;;14.19;39.51;99947.31;1783599;80;21475;-42
2022/11/01 10:21:54;;;;;;;3.15;1.67;;;;;;;14.45;38.66;99954.70;1783653;80;20989;-41
2022/11/01 10:24:36;;;;;;;3.27;1.87;;;;;;;14.76;37.88;99944.73;1783651;80;21283;-41
2022/11/01 10:27:17;;;;;;;3.98;1.85;;;;;;;15.07;37.63;99942.73;1783637;80;20957;-41
2022/11/01 10:30:06;;;;;;;3.42;1.80;;;;;;;15.27;36.58;99941.37;1746067;80;21008;-41
2022/11/01 10:32:50;;;;;;;2.87;1.70;;;;;;;15.40;36.89;99939.13;1783549;80;21190;-41
2022/11/01 10:35:29;;;;;;;3.12;1.95;;;;;;;15.61;35.85;99935.24;1783594;80;21009;-41
2022/11/01 10:38:19;;;;;;;5.67;2.17;;;;;;;15.78;35.94;99929.11;1767642;80;21483;-41
2022/11/01 10:40:52;;;;;;;3.58;2.00;;;;;;;15.87;34.68;99928.22;1783447;80;21517;-41
2022/11/01 10:43:20;;;;;;;3.83;2.12;;;;;;;15.80;35.18;99934.99;1783595;80;21009;-41
2022/11/01 10:45:49;;;;;;;4.65;2.17;;;;;;;15.89;34.66;99931.34;1783557;80;21391;-41
2022/11/01 10:48:32;;;;;;;5.15;2.12;;;;;;;16.06;34.55;99929.89;1783618;80;20969;-41
2022/11/01 10:51:02;;;;;;;2.67;1.60;;;;;;;16.27;33.97;99925.09;1784007;79;21372;-41
2022/11/01 10:53:35;;;;;;;3.65;1.87;;;;;;;16.43;32.27;99922.25;1783697;80;20893;-41
2022/11/01 10:56:07;;;;;;;4.58;1.90;;;;;;;16.45;31.89;99918.56;1783985;80;21546;-41
2022/11/01 10:58:59;;;;;;;3.60;1.90;;;;;;;16.39;30.75;99914.62;1783719;80;20930;-42
2022/11/01 11:01:32;;;;;;;3.33;1.92;;;;;;;16.27;32.10;99914.16;1783692;80;20962;-41
2022/11/01 11:04:00;;;;;;;3.90;2.35;;;;;;;16.35;32.73;99907.56;1783306;80;21185;-42
2022/11/01 11:06:27;;;;;;;3.27;2.02;;;;;;;16.53;32.62;99913.30;1783651;80;20894;-42
2022/11/01 11:08:55;;;;;;;5.10;2.33;;;;;;;16.74;32.58;99911.84;1783886;80;20988;-42
2022/11/01 11:11:34;;;;;;;5.20;2.45;;;;;;;16.97;32.59;99912.28;1751758;80;21020;-42
2022/11/01 11:14:04;;;;;;;3.60;2.20;;;;;;;17.18;32.65;99906.05;1782707;80;21529;-42
2022/11/01 11:16:48;;;;;;;5.95;2.33;;;;;;;17.39;32.16;99908.20;1783940;80;21229;-42
2022/11/01 11:19:32;;;;;;;4.53;2.42;;;;;;;17.60;31.48;99906.66;1783829;80;20933;-42
2022/11/01 11:22:01;;;;;;;4.08;2.25;;;;;;;17.79;31.52;99900.17;1783368;80;20969;-42
2022/11/01 11:24:39;;;;;;;4.95;2.17;;;;;;;17.98;31.54;99900.33;1783800;80;20981;-42
2022/11/01 11:27:22;;;;;;;4.08;2.30;;;;;;;18.19;30.69;99906.35;1783790;80;21033;-42
2022/11/01 11:29:59;;;;;;;7.30;2.22;;;;;;;18.04;30.20;99904.23;1783669;80;21228;-42
2022/11/01 11:32:32;;;;;;;3.15;1.92;;;;;;;17.78;30.40;99901.34;1783588;80;20933;-42
2022/11/01 11:35:16;;;;;;;3.87;1.98;;;;;;;17.81;30.22;99905.27;1750885;80;21118;-42
2022/11/01 11:38:03;;;;;;;4.12;2.10;;;;;;;17.96;30.03;99904.66;1783101;80;21523;-42
2022/11/01 11:40:42;;;;;;;3.55;2.20;;;;;;;18.09;29.47;99904.41;1783784;80;21087;-42
2022/11/01 11:43:32;;;;;;;6.70;2.22;;;;;;;17.96;29.26;99899.92;1783640;80;21218;-42
2022/11/01 11:46:20;;;;;;;6.12;2.50;;;;;;;17.78;30.24;99901.34;1783790;80;21028;-42
2022/11/01 11:48:51;;;;;;;2.67;2.05;;;;;;;17.80;30.90;99905.07;1783364;80;21503;-42
2022/11/01 11:51:20;;;;;;;3.40;2.22;;;;;;;17.96;30.43;99899.92;1783579;80;20997;-42
2022/11/01 11:54:27;;;;;;;5.55;2.92;;;;;;;17.93;29.62;99901.31;1783849;80;21014;-42
2022/11/01 11:57:23;;;;;;;5.22;2.83;;;;;;;17.80;30.18;99904.48;1783903;80;21558;-42
2022/11/01 11:59:58;;;;;;;6.65;2.75;;;;;;;17.66;29.46;99903.72;1783528;80;20897;-42